Time;durP1;ratioP1;P1;durP2;ratioP2;P2;SDS_P1;SDS_P2;PMS_P1;PMS_P2;Temp;Humidity;BMP_temperature;BMP_pressure;BME280_temperature;BME280_humidity;BME280_pressure;Samples;Min_cycle;Max_cycle;Signal;HPM_P1;HPM_P2
2022/01/11 00:00:15;;;;;;;;;8.50;7.50;;;;;19.42;36.20;102528.50;5064742;28;51080;-45
2022/01/11 00:02:43;;;;;;;;;10.00;10.00;;;;;19.41;36.76;102534.19;5062237;27;51684;-45
2022/01/11 00:05:18;;;;;;;;;6.00;6.00;;;;;19.40;36.83;102527.84;5067617;28;51386;-46
2022/01/11 00:07:44;;;;;;;;;7.50;7.00;;;;;19.38;36.52;102518.88;5059392;28;52697;-48
2022/01/11 00:10:13;;;;;;;;;7.50;6.25;;;;;19.37;36.67;102522.66;5067050;28;50973;-47
2022/01/11 00:12:39;;;;;;;;;8.75;8.75;;;;;19.37;36.77;102524.56;5060679;28;50982;-51
2022/01/11 00:15:05;;;;;;;;;7.75;6.00;;;;;19.34;36.70;102525.78;5078361;27;51111;-47
2022/01/11 00:17:30;;;;;;;;;11.00;9.00;;;;;19.33;36.74;102529.56;5060585;28;51891;-46
2022/01/11 00:19:56;;;;;;;;;8.75;8.25;;;;;19.31;36.65;102535.22;5062125;28;51095;-49
2022/01/11 00:22:27;;;;;;;;;9.00;9.00;;;;;19.31;36.74;102531.63;5068851;28;51132;-48
2022/01/11 00:25:17;;;;;;;;;10.00;7.75;;;;;19.28;36.55;102532.84;5070894;28;51531;-48
2022/01/11 00:27:43;;;;;;;;;8.25;7.25;;;;;19.27;36.60;102533.00;5065746;27;51256;-48
2022/01/11 00:30:09;;;;;;;;;7.75;7.75;;;;;19.26;36.54;102534.03;5064725;28;51064;-47
2022/01/11 00:32:42;;;;;;;;;6.50;6.50;;;;;19.25;36.75;102535.06;5065013;28;51179;-45
2022/01/11 00:35:11;;;;;;;;;10.25;8.00;;;;;19.23;36.89;102524.25;5059338;28;51146;-48
2022/01/11 00:37:36;;;;;;;;;6.75;6.25;;;;;19.22;36.68;102525.28;5057094;28;52850;-46
2022/01/11 00:40:04;;;;;;;;;8.25;7.00;;;;;19.21;36.77;102526.31;5060261;28;51108;-46
2022/01/11 00:42:31;;;;;;;;;10.00;8.50;;;;;19.21;36.74;102528.22;5063395;28;51355;-48
2022/01/11 00:44:57;;;;;;;;;9.50;9.50;;;;;19.19;36.75;102522.03;5066362;27;51140;-46
2022/01/11 00:47:23;;;;;;;;;10.75;9.25;;;;;19.18;36.66;102526.66;5065769;28;51329;-50
2022/01/11 00:50:17;;;;;;;;;9.00;7.00;;;;;19.18;36.89;102534.91;5062134;28;51065;-47
2022/01/11 00:52:55;;;;;;;;;7.25;7.00;;;;;19.16;36.73;102530.59;5068600;28;51399;-45
2022/01/11 00:55:20;;;;;;;;;5.25;5.25;;;;;19.15;36.99;102537.13;5066039;28;51283;-51
2022/01/11 00:57:45;;;;;;;;;8.75;7.00;;;;;19.14;36.70;102533.53;5065056;28;51160;-49
2022/01/11 01:00:11;;;;;;;;;7.50;7.00;;;;;19.13;36.82;102519.97;5065268;28;51099;-48
2022/01/11 01:02:40;;;;;;;;;4.00;4.00;;;;;19.11;36.76;102531.13;5066394;28;51163;-50
2022/01/11 01:05:06;;;;;;;;;11.75;8.00;;;;;19.11;36.78;102530.28;5067239;28;51299;-50
2022/01/11 01:07:32;;;;;;;;;9.75;7.50;;;;;19.10;36.80;102534.06;5068015;28;51714;-48
2022/01/11 01:10:04;;;;;;;;;7.00;7.00;;;;;19.10;36.96;102537.66;5062593;28;51010;-46
2022/01/11 01:12:30;;;;;;;;;8.75;6.50;;;;;19.07;36.98;102539.88;5059177;28;50987;-47
2022/01/11 01:14:56;;;;;;;;;7.25;7.25;;;;;19.06;36.62;102544.50;5062757;28;51386;-46
2022/01/11 01:17:21;;;;;;;;;6.00;6.00;;;;;19.07;36.83;102556.34;5066507;28;51813;-44
2022/01/11 01:19:47;;;;;;;;;7.00;5.00;;;;;19.06;36.88;102554.63;5061504;28;51121;-49
2022/01/11 01:22:13;;;;;;;;;8.25;8.25;;;;;19.03;36.84;102553.94;5062707;28;51122;-45
2022/01/11 01:24:38;;;;;;;;;10.50;9.75;;;;;19.03;36.81;102556.69;5057561;28;51240;-48
2022/01/11 01:27:04;;;;;;;;;6.00;6.00;;;;;19.02;36.88;102549.50;5069683;27;51037;-49
2022/01/11 01:29:30;;;;;;;;;5.75;5.75;;;;;19.01;37.10;102553.28;5058207;28;51169;-45
2022/01/11 01:31:55;;;;;;;;;9.50;7.50;;;;;19.01;36.85;102549.66;5065704;28;51584;-44
2022/01/11 01:34:21;;;;;;;;;8.75;8.00;;;;;19.00;37.02;102545.22;5061784;28;51073;-48
2022/01/11 01:36:46;;;;;;;;;9.25;8.75;;;;;18.99;36.87;102547.09;5060955;28;52660;-45
2022/01/11 01:39:12;;;;;;;;;8.25;6.75;;;;;18.98;36.93;102548.13;5062038;28;51089;-49
2022/01/11 01:41:42;;;;;;;;;13.25;10.00;;;;;18.99;36.96;102562.72;5063379;28;51116;-48
2022/01/11 01:44:08;;;;;;;;;7.00;7.00;;;;;18.97;36.85;102562.91;5065354;28;51123;-46
2022/01/11 01:46:33;;;;;;;;;10.25;7.75;;;;;18.97;37.07;102565.66;5062847;27;51568;-48
2022/01/11 01:49:00;;;;;;;;;8.00;7.25;;;;;18.96;37.00;102563.03;5067510;28;51540;-45
2022/01/11 01:51:26;;;;;;;;;9.75;9.75;;;;;18.95;37.08;102564.94;5056722;28;51082;-45
2022/01/11 01:53:52;;;;;;;;;7.00;7.00;;;;;18.94;36.96;102565.97;5061439;28;51304;-49
2022/01/11 01:56:20;;;;;;;;;10.50;9.75;;;;;18.93;36.97;102572.50;5064384;28;51669;-49
2022/01/11 01:58:46;;;;;;;;;5.75;4.25;;;;;18.93;37.01;102577.97;5061111;28;51124;-47
2022/01/11 02:01:13;;;;;;;;;8.25;7.00;;;;;18.93;36.94;102571.63;5068206;28;51197;-51
2022/01/11 02:03:40;;;;;;;;;8.75;8.75;;;;;18.91;37.11;102574.56;5071869;28;51484;-47
2022/01/11 02:06:12;;;;;;;;;11.25;9.25;;;;;18.91;36.87;102577.31;5058561;28;51100;-45
2022/01/11 02:08:38;;;;;;;;;11.00;9.50;;;;;18.89;36.84;102582.09;5060728;28;51212;-49
2022/01/11 02:11:05;;;;;;;;;8.75;8.75;;;;;18.90;37.13;102592.06;5058452;28;51129;-48
2022/01/11 02:13:30;;;;;;;;;11.25;8.50;;;;;18.90;36.98;102593.94;5059287;28;51247;-48
2022/01/11 02:15:57;;;;;;;;;8.25;8.25;;;;;18.89;36.96;102586.75;5056379;28;51175;-46
2022/01/11 02:18:25;;;;;;;;;9.25;9.00;;;;;18.88;37.01;102585.88;5057831;28;51666;-45
2022/01/11 02:20:52;;;;;;;;;8.50;6.75;;;;;18.88;37.02;102591.38;5062192;28;51290;-48
2022/01/11 02:23:20;;;;;;;;;11.25;9.75;;;;;18.87;37.20;102583.31;5068261;28;51268;-47
2022/01/11 02:25:46;;;;;;;;;15.50;11.50;;;;;18.86;37.23;102593.44;5064073;28;52790;-45
2022/01/11 02:28:18;;;;;;;;;8.75;7.75;;;;;18.84;37.06;102587.22;5064936;27;51144;-47
2022/01/11 02:30:44;;;;;;;;;9.50;8.00;;;;;18.85;36.96;102590.84;5062190;28;51195;-48
2022/01/11 02:33:22;;;;;;;;;7.75;7.50;;;;;18.83;37.24;102588.25;5063889;28;51085;-45
2022/01/11 02:35:51;;;;;;;;;11.25;9.00;;;;;18.83;37.19;102588.25;5056819;28;51900;-49
2022/01/11 02:38:17;;;;;;;;;6.00;6.00;;;;;18.84;36.98;102600.97;5062291;28;51334;-50
2022/01/11 02:40:43;;;;;;;;;11.00;8.00;;;;;18.82;37.23;102592.03;5069508;28;51066;-45
2022/01/11 02:43:09;;;;;;;;;11.00;9.00;;;;;18.83;37.05;102593.75;5066565;28;50922;-47
2022/01/11 02:45:34;;;;;;;;;7.00;6.50;;;;;18.81;37.14;102590.31;5059216;28;51564;-45
2022/01/11 02:48:00;;;;;;;;;11.75;8.25;;;;;18.81;37.00;102606.81;5057870;28;51595;-51
2022/01/11 02:50:25;;;;;;;;;8.50;7.00;;;;;18.80;37.09;102605.09;5059532;28;51621;-48
2022/01/11 02:52:52;;;;;;;;;8.00;8.00;;;;;18.80;37.25;102596.00;5058601;28;51299;-49
2022/01/11 02:55:17;;;;;;;;;8.75;7.00;;;;;18.79;37.14;102595.13;5069628;28;51715;-50
2022/01/11 02:57:43;;;;;;;;;10.75;8.50;;;;;18.80;37.23;102596.00;5060450;28;51277;-51
2022/01/11 03:00:13;;;;;;;;;7.00;7.00;;;;;18.78;37.29;102593.41;5062033;28;51146;-46
2022/01/11 03:02:39;;;;;;;;;9.00;8.25;;;;;18.78;37.04;102601.66;5061492;28;50994;-46
2022/01/11 03:05:06;;;;;;;;;9.25;6.75;;;;;18.77;37.15;102599.09;5063996;28;51162;-50
2022/01/11 03:07:32;;;;;;;;;11.50;8.25;;;;;18.76;37.27;102600.97;5061293;28;51924;-48
2022/01/11 03:10:03;;;;;;;;;9.00;7.50;;;;;18.76;37.06;102598.22;5067547;28;51013;-46
2022/01/11 03:12:29;;;;;;;;;12.00;9.00;;;;;18.75;37.24;102601.97;5060363;28;51616;-47
2022/01/11 03:14:55;;;;;;;;;8.50;7.00;;;;;18.74;37.05;102603.84;5062345;28;51746;-50
2022/01/11 03:17:20;;;;;;;;;12.50;8.00;;;;;18.74;37.17;102612.09;5061362;28;51064;-48
2022/01/11 03:19:47;;;;;;;;;7.75;7.25;;;;;18.73;37.17;102615.00;5063074;28;51259;-46
2022/01/11 03:22:12;;;;;;;;;10.50;7.50;;;;;18.73;37.31;102613.13;5070192;28;51203;-46
2022/01/11 03:24:39;;;;;;;;;6.75;6.75;;;;;18.72;37.29;102619.66;5067340;28;51140;-45
2022/01/11 03:27:07;;;;;;;;;8.50;8.00;;;;;18.71;37.26;102615.19;5060671;27;51220;-45
2022/01/11 03:29:37;;;;;;;;;7.50;6.25;;;;;18.70;37.21;102605.22;5067793;28;51217;-47
2022/01/11 03:32:04;;;;;;;;;8.00;8.00;;;;;18.71;37.07;102614.31;5064732;28;51180;-44
2022/01/11 03:34:29;;;;;;;;;6.75;6.00;;;;;18.71;37.35;102617.06;5061660;28;51124;-46
2022/01/11 03:36:55;;;;;;;;;9.00;8.25;;;;;18.69;37.19;102621.88;5060606;28;50987;-47
2022/01/11 03:39:20;;;;;;;;;9.25;8.00;;;;;18.68;37.09;102623.75;5059458;28;51249;-46
2022/01/11 03:41:46;;;;;;;;;8.00;8.00;;;;;18.70;37.31;102623.59;5062934;28;51186;-46
2022/01/11 03:44:11;;;;;;;;;7.00;7.00;;;;;18.68;37.27;102618.28;5068036;28;52166;-45
2022/01/11 03:46:36;;;;;;;;;10.00;9.00;;;;;18.68;37.53;102623.75;5063273;28;51147;-43
2022/01/11 03:49:01;;;;;;;;;8.50;6.75;;;;;18.67;37.06;102627.53;5064128;28;51218;-48
2022/01/11 03:51:27;;;;;;;;;8.50;8.25;;;;;18.66;37.09;102631.31;5066144;28;51007;-47
2022/01/11 03:54:03;;;;;;;;;6.75;6.00;;;;;18.66;37.03;102630.47;5070226;28;51162;-47
2022/01/11 03:56:29;;;;;;;;;8.25;7.00;;;;;18.66;37.04;102639.56;5062428;28;51501;-44
2022/01/11 03:58:54;;;;;;;;;7.50;7.00;;;;;18.65;37.06;102645.19;5064461;28;51214;-46
2022/01/11 04:01:21;;;;;;;;;5.25;5.25;;;;;18.65;37.06;102650.66;5065173;27;51195;-45
2022/01/11 04:03:47;;;;;;;;;6.00;6.00;;;;;18.64;37.25;102629.72;5061415;28;51913;-47
2022/01/11 04:06:16;;;;;;;;;8.00;7.00;;;;;18.63;37.09;102622.50;5065635;28;51419;-47
2022/01/11 04:08:43;;;;;;;;;10.25;8.50;;;;;18.63;37.06;102633.47;5061850;28;51290;-46
2022/01/11 04:11:08;;;;;;;;;6.00;6.00;;;;;18.62;37.28;102632.63;5061889;28;51227;-44
2022/01/11 04:13:33;;;;;;;;;7.75;5.50;;;;;18.60;37.42;102631.94;5066434;28;51168;-49
2022/01/11 04:15:59;;;;;;;;;7.50;6.50;;;;;18.61;37.18;102628.16;5057443;28;51196;-44
2022/01/11 04:18:24;;;;;;;;;7.50;7.00;;;;;18.61;37.23;102624.56;5065620;28;51299;-46
2022/01/11 04:20:49;;;;;;;;;8.25;7.75;;;;;18.60;37.31;102620.97;5062598;28;51029;-44
2022/01/11 04:23:15;;;;;;;;;6.75;5.75;;;;;18.59;37.29;102621.13;5061679;28;51937;-48
2022/01/11 04:25:40;;;;;;;;;6.75;6.75;;;;;18.58;37.33;102617.53;5062638;28;51138;-45
2022/01/11 04:28:06;;;;;;;;;7.50;7.25;;;;;18.58;37.03;102627.66;5061121;27;51806;-45
2022/01/11 04:30:31;;;;;;;;;6.50;5.00;;;;;18.59;36.92;102629.38;5066567;28;51343;-45
2022/01/11 04:32:57;;;;;;;;;7.00;6.25;;;;;18.56;37.40;102637.94;5065023;28;51946;-46
2022/01/11 04:35:22;;;;;;;;;4.75;4.75;;;;;18.56;37.35;102636.06;5071198;28;51146;-44
2022/01/11 04:37:47;;;;;;;;;9.00;7.75;;;;;18.55;37.18;102639.81;5062071;27;51101;-46
2022/01/11 04:40:15;;;;;;;;;9.00;6.50;;;;;18.55;37.48;102633.44;5063090;28;51121;-46
2022/01/11 04:42:40;;;;;;;;;6.50;6.50;;;;;18.54;37.14;102634.47;5069908;28;51919;-47
2022/01/11 04:45:09;;;;;;;;;6.50;5.00;;;;;18.53;37.31;102636.38;5063321;28;51170;-48
2022/01/11 04:47:35;;;;;;;;;8.00;8.00;;;;;18.52;37.14;102631.91;5057995;28;51081;-46
2022/01/11 04:50:00;;;;;;;;;6.50;6.00;;;;;18.51;37.17;102635.69;5061662;28;51437;-46
2022/01/11 04:52:25;;;;;;;;;7.50;7.50;;;;;18.52;37.09;102629.16;5065785;28;50966;-46
2022/01/11 04:54:51;;;;;;;;;7.00;6.75;;;;;18.51;37.43;102643.91;5066904;28;50988;-49
2022/01/11 04:57:16;;;;;;;;;7.00;7.00;;;;;18.50;37.21;102641.34;5064992;28;51174;-48
2022/01/11 04:59:41;;;;;;;;;8.75;6.50;;;;;18.50;37.35;102649.56;5064426;28;51231;-47
2022/01/11 05:02:07;;;;;;;;;8.00;8.00;;;;;18.49;37.39;102659.69;5071280;28;51052;-50
2022/01/11 05:04:32;;;;;;;;;5.50;5.50;;;;;18.49;37.39;102665.19;5064705;28;51240;-46
2022/01/11 05:06:58;;;;;;;;;6.25;6.25;;;;;18.48;37.24;102671.69;5067312;28;50999;-46
2022/01/11 05:09:23;;;;;;;;;6.00;6.00;;;;;18.48;37.14;102660.72;5066998;28;51136;-46
2022/01/11 05:11:50;;;;;;;;;8.25;7.00;;;;;18.47;37.33;102656.25;5063318;28;51863;-44
2022/01/11 05:14:15;;;;;;;;;7.25;5.00;;;;;18.46;37.33;102671.00;5066089;28;51245;-43
2022/01/11 05:16:41;;;;;;;;;9.25;7.25;;;;;18.46;37.05;102671.00;5064765;28;51440;-46
2022/01/11 05:19:12;;;;;;;;;12.00;9.00;;;;;18.44;37.24;102660.19;5064330;28;51036;-46
2022/01/11 05:21:38;;;;;;;;;7.25;6.25;;;;;18.44;37.01;102662.06;5067045;28;52016;-43
2022/01/11 05:24:04;;;;;;;;;6.00;6.00;;;;;18.43;37.11;102661.19;5066708;28;51409;-46
2022/01/11 05:26:29;;;;;;;;;5.25;4.75;;;;;18.43;37.35;102658.44;5069960;27;51179;-47
2022/01/11 05:28:54;;;;;;;;;6.00;5.00;;;;;18.43;37.37;102663.06;5067227;27;51676;-44
2022/01/11 05:31:20;;;;;;;;;7.75;7.25;;;;;18.41;37.26;102663.25;5067376;28;51904;-47
2022/01/11 05:33:45;;;;;;;;;8.25;7.00;;;;;18.42;37.19;102673.19;5063872;27;51096;-44
2022/01/11 05:36:10;;;;;;;;;7.50;6.00;;;;;18.42;37.27;102672.34;5066252;28;51036;-43
2022/01/11 05:38:36;;;;;;;;;7.50;7.50;;;;;18.42;37.42;102677.81;5067565;27;51244;-43
2022/01/11 05:41:01;;;;;;;;;9.25;6.75;;;;;18.41;37.32;102685.19;5065030;28;51635;-44
2022/01/11 05:43:26;;;;;;;;;7.50;6.50;;;;;18.40;37.27;102686.22;5060326;28;51145;-44
2022/01/11 05:45:52;;;;;;;;;5.75;5.00;;;;;18.40;37.03;102696.34;5065242;28;51136;-43
2022/01/11 05:48:17;;;;;;;;;8.50;6.25;;;;;18.38;37.06;102699.25;5064158;28;51295;-47
2022/01/11 05:50:43;;;;;;;;;6.50;6.50;;;;;18.39;37.14;102700.97;5063964;28;51679;-45
2022/01/11 05:53:09;;;;;;;;;14.75;14.50;;;;;18.39;36.52;102700.13;5066340;28;51036;-44
2022/01/11 05:55:34;;;;;;;;;22.25;20.75;;;;;18.34;35.58;102689.66;5062175;28;51211;-42
2022/01/11 05:58:00;;;;;;;;;23.75;20.50;;;;;18.28;35.14;102684.81;5066036;28;50992;-44
2022/01/11 06:00:25;;;;;;;;;31.25;25.25;;;;;18.21;34.61;102686.47;5057481;28;51923;-42
2022/01/11 06:02:55;;;;;;;;;22.50;19.75;;;;;18.12;34.51;102691.03;5065777;28;51464;-45
2022/01/11 06:05:21;;;;;;;;;25.50;23.75;;;;;18.07;34.47;102696.16;5060330;28;51026;-45
2022/01/11 06:07:47;;;;;;;;;23.75;21.25;;;;;18.06;34.30;102696.34;5067748;28;51394;-47
2022/01/11 06:10:14;;;;;;;;;17.75;17.75;;;;;18.11;34.72;102699.44;5063708;28;51197;-46
2022/01/11 06:12:39;;;;;;;;;18.75;15.75;;;;;18.18;34.64;102708.75;5064409;28;51132;-48
2022/01/11 06:15:05;;;;;;;;;18.75;14.50;;;;;18.27;34.77;102729.72;5063949;28;50970;-46
2022/01/11 06:17:30;;;;;;;;;12.75;12.50;;;;;18.36;34.46;102734.25;5062271;28;51418;-49
2022/01/11 06:19:56;;;;;;;;;16.00;13.25;;;;;18.44;34.61;102731.53;5061473;28;51774;-45
2022/01/11 06:22:21;;;;;;;;;11.75;11.00;;;;;18.53;34.73;102737.06;5065400;28;51361;-44
2022/01/11 06:24:47;;;;;;;;;12.50;11.75;;;;;18.62;34.81;102736.06;5066280;28;51132;-49
2022/01/11 06:27:13;;;;;;;;;14.00;9.00;;;;;18.69;34.95;102734.44;5072968;27;51332;-49
2022/01/11 06:29:38;;;;;;;;;10.75;10.75;;;;;18.77;34.84;102728.97;5073105;28;51832;-45
2022/01/11 06:32:04;;;;;;;;;7.50;7.00;;;;;18.85;35.22;102728.97;5064048;28;51117;-45
2022/01/11 06:34:29;;;;;;;;;10.75;10.75;;;;;18.93;35.17;102728.16;5066392;27;51145;-46
2022/01/11 06:36:55;;;;;;;;;11.50;8.75;;;;;19.02;35.26;102724.41;5066770;28;51021;-48
2022/01/11 06:39:20;;;;;;;;;6.75;6.75;;;;;19.08;35.18;102729.25;5073170;28;51796;-47
2022/01/11 06:41:45;;;;;;;;;12.75;10.25;;;;;19.14;35.22;102720.31;5069431;28;51016;-49
2022/01/11 06:44:11;;;;;;;;;9.75;8.50;;;;;19.22;35.13;102724.97;5071047;27;51097;-47
2022/01/11 06:46:37;;;;;;;;;6.50;6.50;;;;;19.28;35.25;102730.69;5066900;28;51146;-47
2022/01/11 06:49:04;;;;;;;;;6.75;6.50;;;;;19.36;35.01;102740.78;5073096;28;51033;-48
2022/01/11 06:51:29;;;;;;;;;7.75;7.00;;;;;19.42;35.19;102740.13;5069316;28;51028;-47
2022/01/11 06:53:55;;;;;;;;;9.75;6.00;;;;;19.47;35.13;102745.09;5067102;28;51226;-49
2022/01/11 06:56:21;;;;;;;;;7.50;6.75;;;;;19.54;34.86;102740.66;5066550;28;51128;-45
2022/01/11 06:58:46;;;;;;;;;8.75;8.75;;;;;19.59;35.14;102739.16;5066153;28;51162;-46
2022/01/11 07:01:12;;;;;;;;;10.00;6.50;;;;;19.64;34.87;102718.53;5062874;28;51139;-49
2022/01/11 07:03:38;;;;;;;;;7.75;7.25;;;;;19.71;35.02;102728.69;5067738;28;51285;-48
2022/01/11 07:06:03;;;;;;;;;8.50;6.75;;;;;19.76;34.83;102726.25;5069409;28;51211;-47
2022/01/11 07:08:29;;;;;;;;;5.00;5.00;;;;;19.81;34.71;102734.88;5068680;27;50934;-46
2022/01/11 07:10:55;;;;;;;;;7.25;6.25;;;;;19.87;35.06;102741.56;5067168;27;51246;-46
2022/01/11 07:13:20;;;;;;;;;9.50;8.00;;;;;19.93;35.19;102745.53;5060940;28;51204;-47
2022/01/11 07:15:46;;;;;;;;;9.25;8.00;;;;;19.99;35.00;102747.56;5059407;27;51346;-49
2022/01/11 07:18:12;;;;;;;;;6.50;6.50;;;;;20.03;35.30;102752.56;5062442;27;51497;-46
2022/01/11 07:20:42;;;;;;;;;7.00;7.00;;;;;20.08;34.96;102752.88;5065511;28;51145;-48
2022/01/11 07:23:08;;;;;;;;;8.50;6.75;;;;;20.12;35.20;102754.28;5068643;28;51208;-51
2022/01/11 07:25:33;;;;;;;;;5.75;5.75;;;;;20.19;35.21;102755.25;5066573;28;51497;-45
2022/01/11 07:27:59;;;;;;;;;9.00;7.00;;;;;20.26;35.21;102760.09;5078632;27;51929;-46
2022/01/11 07:30:25;;;;;;;;;7.75;6.75;;;;;20.30;35.16;102775.19;5063280;27;51235;-43
2022/01/11 07:32:51;;;;;;;;;9.75;9.75;;;;;20.34;34.92;102774.69;5064935;28;51018;-47
2022/01/11 07:35:16;;;;;;;;;9.75;9.75;;;;;20.38;34.78;102781.56;5065239;28;51152;-46
2022/01/11 07:37:42;;;;;;;;;12.00;9.00;;;;;20.42;34.49;102787.56;5064848;28;50997;-51
2022/01/11 07:40:08;;;;;;;;;16.75;11.75;;;;;20.45;34.36;102799.13;5060127;28;51777;-48
2022/01/11 07:42:35;;;;;;;;;11.50;10.50;;;;;20.46;33.96;102808.25;5065727;28;51194;-49
2022/01/11 07:45:00;;;;;;;;;14.00;11.25;;;;;20.41;34.06;102799.59;5067277;28;52376;-47
2022/01/11 07:47:25;;;;;;;;;13.00;10.50;;;;;20.36;34.14;102799.28;5071504;28;52530;-48
2022/01/11 07:49:51;;;;;;;;;15.00;13.25;;;;;20.30;33.82;102791.72;5062965;28;51096;-44
2022/01/11 07:52:17;;;;;;;;;15.50;13.00;;;;;20.23;33.47;102797.06;5065502;28;51169;-45
2022/01/11 07:54:42;;;;;;;;;17.50;15.00;;;;;20.16;33.72;102796.91;5066302;28;51365;-50
2022/01/11 07:57:08;;;;;;;;;15.75;15.00;;;;;20.10;33.42;102803.09;5068080;28;52350;-49
2022/01/11 07:59:33;;;;;;;;;17.75;17.75;;;;;20.04;33.18;102806.53;5067407;28;51077;-48
2022/01/11 08:01:59;;;;;;;;;16.75;15.25;;;;;19.99;33.35;102810.81;5066210;28;51368;-49
2022/01/11 08:04:30;;;;;;;;;23.00;19.25;;;;;19.92;33.34;102812.56;5065729;28;51181;-46
2022/01/11 08:06:56;;;;;;;;;19.25;16.75;;;;;19.86;33.17;102797.59;5061620;27;51165;-46
2022/01/11 08:09:21;;;;;;;;;22.50;20.50;;;;;19.80;33.18;102796.41;5061521;28;51028;-51
2022/01/11 08:11:49;;;;;;;;;23.00;20.25;;;;;19.75;33.36;102811.69;5067420;28;51511;-49
2022/01/11 08:14:15;;;;;;;;;21.50;19.75;;;;;19.69;33.24;102809.59;5067912;28;51239;-51
2022/01/11 08:16:40;;;;;;;;;19.50;18.00;;;;;19.64;33.05;102807.38;5058340;28;51880;-45
2022/01/11 08:19:05;;;;;;;;;25.25;19.50;;;;;19.58;33.51;102811.63;5066428;28;51173;-46
2022/01/11 08:21:30;;;;;;;;;22.00;19.25;;;;;19.55;33.35;102819.34;5064877;28;51255;-46
2022/01/11 08:23:56;;;;;;;;;20.75;19.00;;;;;19.51;33.42;102835.31;5065555;28;51155;-46
2022/01/11 08:26:21;;;;;;;;;21.75;18.50;;;;;19.46;33.57;102842.34;5069021;27;51894;-50
2022/01/11 08:28:46;;;;;;;;;19.75;16.25;;;;;19.42;33.59;102832.72;5065316;28;51052;-50
2022/01/11 08:31:12;;;;;;;;;17.25;16.75;;;;;19.38;33.81;102832.19;5066932;27;51335;-48
2022/01/11 08:33:38;;;;;;;;;21.50;17.75;;;;;19.36;33.92;102841.63;5063226;28;51192;-48
2022/01/11 08:36:04;;;;;;;;;18.75;17.25;;;;;19.31;34.05;102848.50;5073140;27;52383;-47
2022/01/11 08:38:30;;;;;;;;;18.50;15.00;;;;;19.28;34.24;102843.34;5067715;28;51423;-51
2022/01/11 08:40:55;;;;;;;;;21.25;18.50;;;;;19.25;34.16;102846.41;5059973;28;51073;-52
2022/01/11 08:43:20;;;;;;;;;19.50;19.00;;;;;19.22;34.13;102846.72;5065485;28;51058;-50
2022/01/11 08:45:46;;;;;;;;;16.50;16.00;;;;;19.19;34.25;102838.84;5065437;28;51676;-50
2022/01/11 08:48:11;;;;;;;;;17.25;17.25;;;;;19.15;34.28;102844.81;5066500;28;51100;-49
2022/01/11 08:50:37;;;;;;;;;17.00;15.75;;;;;19.12;34.36;102846.00;5075133;27;51065;-49
2022/01/11 08:53:02;;;;;;;;;15.50;14.75;;;;;19.10;34.61;102841.72;5066854;28;51146;-49
2022/01/11 08:55:28;;;;;;;;;14.75;14.00;;;;;19.07;34.41;102831.03;5062241;28;51112;-49
2022/01/11 08:57:53;;;;;;;;;18.00;15.25;;;;;19.03;34.47;102839.59;5070153;28;51335;-51
2022/01/11 09:00:19;;;;;;;;;16.75;15.50;;;;;19.01;34.65;102841.66;5064020;27;51286;-46
2022/01/11 09:02:51;;;;;;;;;16.75;13.25;;;;;19.00;34.61;102844.59;5069482;28;51166;-51
2022/01/11 09:05:17;;;;;;;;;15.75;15.50;;;;;18.97;34.60;102851.28;5055556;28;52767;-49
2022/01/11 09:07:43;;;;;;;;;17.25;13.25;;;;;18.95;34.49;102852.44;5075956;28;51350;-50
2022/01/11 09:10:09;;;;;;;;;16.50;14.00;;;;;18.93;34.77;102851.75;5057934;28;51186;-48
2022/01/11 09:12:34;;;;;;;;;19.50;15.50;;;;;18.91;34.78;102862.03;5056032;28;51101;-51
2022/01/11 09:15:01;;;;;;;;;15.25;15.25;;;;;18.89;34.87;102856.72;5055417;28;51112;-48
2022/01/11 09:17:27;;;;;;;;;17.75;14.75;;;;;18.87;35.04;102853.28;5057790;28;51045;-49
2022/01/11 09:19:52;;;;;;;;;17.50;14.75;;;;;18.86;34.76;102858.91;5068683;28;51729;-50
2022/01/11 09:22:18;;;;;;;;;13.00;11.75;;;;;18.84;34.96;102863.69;5068324;28;51840;-48
2022/01/11 09:24:44;;;;;;;;;17.00;14.75;;;;;18.82;34.93;102865.75;5063746;28;51444;-48
2022/01/11 09:27:09;;;;;;;;;20.75;15.25;;;;;18.80;34.90;102862.31;5062021;27;51209;-50
2022/01/11 09:29:39;;;;;;;;;19.00;15.50;;;;;18.78;35.05;102862.50;5059566;28;51081;-49
2022/01/11 09:32:06;;;;;;;;;20.50;16.50;;;;;18.76;35.21;102861.78;5060075;28;51711;-47
2022/01/11 09:34:32;;;;;;;;;16.25;16.25;;;;;18.74;35.12;102866.56;5066489;28;52149;-49
2022/01/11 09:36:57;;;;;;;;;17.50;13.50;;;;;18.73;35.07;102873.94;5066584;28;51121;-48
2022/01/11 09:39:23;;;;;;;;;18.25;14.75;;;;;18.72;34.91;102879.59;5060738;27;51697;-51
2022/01/11 09:41:49;;;;;;;;;18.00;14.75;;;;;18.70;35.25;102879.75;5063876;28;51108;-45
2022/01/11 09:44:15;;;;;;;;;14.50;14.25;;;;;18.69;34.99;102875.28;5066278;28;51900;-50
2022/01/11 09:46:41;;;;;;;;;18.75;14.25;;;;;18.68;35.15;102878.22;5064765;28;51326;-45
2022/01/11 09:49:06;;;;;;;;;19.75;13.25;;;;;18.67;35.07;102881.97;5065202;28;50980;-51
2022/01/11 09:51:34;;;;;;;;;16.25;15.00;;;;;18.64;35.16;102883.13;5060895;28;51070;-47
2022/01/11 09:54:00;;;;;;;;;17.00;15.00;;;;;18.63;35.18;102875.91;5061852;28;52798;-45
2022/01/11 09:56:26;;;;;;;;;21.25;18.00;;;;;18.62;35.54;102887.03;5061332;28;51166;-47
2022/01/11 09:58:51;;;;;;;;;22.00;17.25;;;;;18.61;35.29;102888.94;5056764;27;51360;-51
2022/01/11 10:01:17;;;;;;;;;17.25;15.00;;;;;18.60;35.51;102900.94;5062058;28;51215;-50
2022/01/11 10:04:06;;;;;;;;;22.50;18.25;;;;;18.59;35.34;102896.47;5063003;28;51334;-50
2022/01/11 10:06:33;;;;;;;;;24.75;17.00;;;;;18.58;35.32;102902.97;5063644;28;51372;-48
2022/01/11 10:09:18;;;;;;;;;16.00;16.00;;;;;18.57;35.58;102893.03;5063211;28;51102;-49
2022/01/11 10:11:46;;;;;;;;;16.50;16.00;;;;;18.56;35.40;102890.44;5062555;28;51287;-46
2022/01/11 10:14:24;;;;;;;;;20.25;16.00;;;;;18.55;35.56;102896.94;5066510;28;51077;-52
2022/01/11 10:17:03;;;;;;;;;22.25;19.50;;;;;18.53;35.63;102899.84;5067285;28;51051;-51
2022/01/11 10:19:28;;;;;;;;;22.50;17.00;;;;;18.51;35.40;102904.63;5066003;28;51123;-50
2022/01/11 10:21:55;;;;;;;;;22.75;17.25;;;;;18.50;35.62;102907.53;5068124;28;51630;-46
2022/01/11 10:24:22;;;;;;;;;18.75;18.75;;;;;18.49;35.35;102914.06;5058862;28;51064;-48
2022/01/11 10:26:47;;;;;;;;;12.25;12.00;;;;;18.48;35.74;102904.97;5068190;27;51282;-46
2022/01/11 10:29:23;;;;;;;;;18.75;17.25;;;;;18.47;35.50;102911.47;5064074;27;51314;-49
2022/01/11 10:31:48;;;;;;;;;15.75;15.00;;;;;18.46;35.71;102910.63;5068054;28;51294;-45
2022/01/11 10:34:14;;;;;;;;;21.75;18.50;;;;;18.45;35.82;102914.38;5064986;28;52105;-52
2022/01/11 10:36:44;;;;;;;;;18.50;14.75;;;;;18.44;35.85;102912.66;5063070;28;51124;-47
2022/01/11 10:39:31;;;;;;;;;16.75;13.25;;;;;18.44;35.57;102911.78;5060062;28;51085;-49
2022/01/11 10:41:58;;;;;;;;;15.75;14.00;;;;;18.43;35.66;102915.53;5073085;27;51311;-52
2022/01/11 10:44:42;;;;;;;;;19.25;16.75;;;;;18.42;35.95;102922.06;5065814;27;51151;-49
2022/01/11 10:47:07;;;;;;;;;15.00;15.00;;;;;18.40;35.97;102921.34;5068182;28;51156;-47
2022/01/11 10:49:35;;;;;;;;;17.00;16.00;;;;;18.40;35.74;102921.34;5067146;28;51124;-50
2022/01/11 10:52:21;;;;;;;;;16.75;14.75;;;;;18.39;35.76;102925.13;5060688;27;51306;-50
2022/01/11 10:54:48;;;;;;;;;19.75;15.50;;;;;18.37;35.93;102922.53;5062497;28;51892;-50
2022/01/11 10:57:26;;;;;;;;;18.50;16.00;;;;;18.37;35.62;102925.28;5067367;28;51441;-46
2022/01/11 11:00:06;;;;;;;;;20.50;17.75;;;;;18.37;35.77;102921.69;5068322;28;51857;-45
2022/01/11 11:02:32;;;;;;;;;19.25;16.00;;;;;18.36;35.80;102917.22;5068689;28;51089;-50
2022/01/11 11:05:00;;;;;;;;;18.50;17.00;;;;;18.34;35.69;102922.88;5068473;28;51699;-49
2022/01/11 11:07:27;;;;;;;;;20.75;19.00;;;;;18.34;36.07;102917.38;5066904;28;51274;-49
2022/01/11 11:09:53;;;;;;;;;26.00;18.00;;;;;18.32;35.99;102916.66;5059671;28;51121;-47
2022/01/11 11:12:21;;;;;;;;;17.00;16.25;;;;;18.32;35.79;102913.03;5066370;28;51164;-49
2022/01/11 11:14:52;;;;;;;;;20.75;16.00;;;;;18.32;36.11;102915.78;5062917;28;51143;-49